createdAt,value
2023-02-23T00:01:22.103Z,6.96
2023-02-23T00:04:25.354Z,6.96
2023-02-23T00:07:27.930Z,6.89
2023-02-23T00:10:31.677Z,6.90
2023-02-23T00:13:37.608Z,6.89
2023-02-23T00:16:40.472Z,6.90
2023-02-23T00:19:43.662Z,6.89
2023-02-23T00:22:46.912Z,7.02
2023-02-23T00:25:49.474Z,6.95
2023-02-23T00:28:55.860Z,6.94
2023-02-23T00:31:58.569Z,6.90
2023-02-23T00:35:01.568Z,6.85
2023-02-23T00:38:04.128Z,6.84
2023-02-23T00:41:08.211Z,6.88
2023-02-23T00:44:10.927Z,6.88
2023-02-23T00:47:13.698Z,6.94
2023-02-23T00:50:18.141Z,6.91
2023-02-23T00:53:21.999Z,6.88
2023-02-23T00:56:26.847Z,6.83
2023-02-23T00:59:29.736Z,6.76
2023-02-23T01:02:32.461Z,6.76
2023-02-23T01:05:35.633Z,6.79
2023-02-23T01:08:40.826Z,6.76
2023-02-23T01:11:46.893Z,6.74
2023-02-23T01:14:50.190Z,6.69
2023-02-23T01:17:53.122Z,6.71
2023-02-23T01:20:55.709Z,6.80
2023-02-23T01:23:58.942Z,6.83
2023-02-23T01:27:01.566Z,6.88
2023-02-23T01:30:05.118Z,7.03
2023-02-23T01:33:08.103Z,7.02
2023-02-23T01:36:11.012Z,7.11
2023-02-23T01:39:19.378Z,7.03
2023-02-23T01:42:22.877Z,7.04
2023-02-23T01:45:28.808Z,6.99
2023-02-23T01:48:37.461Z,7.01
2023-02-23T01:51:44.326Z,6.96
2023-02-23T01:54:52.090Z,6.89
2023-02-23T01:58:02.271Z,6.85
2023-02-23T02:01:05.572Z,6.78
2023-02-23T02:04:16.437Z,6.77
2023-02-23T02:07:25.002Z,6.85
2023-02-23T02:10:47.438Z,6.80
2023-02-23T02:13:50.392Z,6.80
2023-02-23T02:17:21.019Z,6.77
2023-02-23T02:20:43.017Z,6.70
2023-02-23T02:24:10.992Z,6.70
2023-02-23T02:27:34.213Z,6.70
2023-02-23T02:30:48.636Z,6.73
2023-02-23T02:34:29.180Z,6.78
2023-02-23T02:37:34.747Z,6.78
2023-02-23T02:40:40.291Z,6.76
2023-02-23T02:44:00.737Z,6.78
2023-02-23T02:47:09.374Z,6.85
2023-02-23T02:50:46.354Z,6.81
2023-02-23T02:54:06.934Z,6.80
2023-02-23T02:57:12.990Z,6.74
2023-02-23T03:00:40.810Z,6.73
2023-02-23T03:04:06.234Z,6.74
2023-02-23T03:07:39.041Z,6.73
2023-02-23T03:11:15.185Z,6.68
2023-02-23T03:15:03.195Z,6.65
2023-02-23T03:18:53.303Z,6.70
2023-02-23T03:22:33.077Z,6.62
2023-02-23T03:26:06.743Z,6.65
2023-02-23T03:29:56.951Z,6.67
2023-02-23T03:33:25.957Z,6.64
2023-02-23T03:36:53.324Z,6.61
2023-02-23T03:40:26.920Z,6.57
2023-02-23T03:43:53.306Z,6.57
2023-02-23T03:47:17.458Z,6.61
2023-02-23T03:50:47.305Z,6.60
2023-02-23T03:54:16.491Z,6.63
2023-02-23T03:57:41.469Z,6.66
2023-02-23T04:01:07.345Z,6.62
2023-02-23T04:04:30.240Z,6.61
2023-02-23T04:07:53.556Z,6.65
2023-02-23T04:11:29.338Z,6.58
2023-02-23T04:14:40.473Z,6.56
2023-02-23T04:17:44.238Z,6.57
2023-02-23T04:20:46.882Z,6.55
2023-02-23T04:23:49.874Z,6.58
2023-02-23T04:26:52.480Z,6.67
2023-02-23T04:29:55.473Z,6.74
2023-02-23T04:32:59.226Z,6.72
2023-02-23T04:36:02.129Z,6.74
2023-02-23T04:39:04.972Z,6.83
2023-02-23T04:42:08.054Z,6.93
2023-02-23T04:45:11.060Z,6.86
2023-02-23T04:48:13.931Z,6.72
2023-02-23T04:51:16.772Z,6.70
2023-02-23T04:54:20.969Z,6.80
2023-02-23T04:57:23.643Z,6.68
2023-02-23T05:00:29.415Z,6.73
2023-02-23T05:03:32.101Z,6.77
2023-02-23T05:06:35.048Z,6.82
2023-02-23T05:09:37.784Z,6.71
2023-02-23T05:12:40.881Z,6.72
2023-02-23T05:15:43.449Z,6.71
2023-02-23T05:18:46.270Z,6.71
2023-02-23T05:21:50.484Z,6.78
2023-02-23T05:24:55.279Z,6.68
2023-02-23T05:27:59.519Z,6.71
2023-02-23T05:31:03.803Z,6.59
2023-02-23T05:34:07.234Z,6.60
2023-02-23T05:37:10.082Z,6.73
2023-02-23T05:40:14.055Z,6.73
2023-02-23T05:43:19.306Z,6.62
2023-02-23T05:46:26.766Z,6.68
2023-02-23T05:49:30.128Z,6.81
2023-02-23T05:52:32.927Z,6.71
2023-02-23T05:55:36.045Z,6.72
2023-02-23T05:58:38.640Z,6.85
2023-02-23T06:01:41.870Z,6.81
2023-02-23T06:04:44.984Z,6.84
2023-02-23T06:07:48.143Z,6.82
2023-02-23T06:10:51.356Z,6.79
2023-02-23T06:13:54.077Z,6.70
2023-02-23T06:16:56.940Z,6.60
2023-02-23T06:20:02.045Z,6.76
2023-02-23T06:23:05.212Z,6.72
2023-02-23T06:26:08.362Z,6.72
2023-02-23T06:29:11.995Z,6.80
2023-02-23T06:32:14.725Z,6.90
2023-02-23T06:35:17.978Z,6.88
2023-02-23T06:38:21.202Z,6.91
2023-02-23T06:41:24.679Z,6.89
2023-02-23T06:44:27.200Z,6.90
2023-02-23T06:47:30.097Z,7.11
2023-02-23T06:50:33.722Z,7.02
2023-02-23T06:53:37.032Z,7.06
2023-02-23T06:56:39.671Z,7.10
2023-02-23T06:59:42.773Z,7.21
2023-02-23T07:02:45.848Z,7.26
2023-02-23T07:05:50.145Z,7.36
2023-02-23T07:08:52.921Z,7.28
2023-02-23T07:11:55.850Z,7.37
2023-02-23T07:14:58.567Z,7.47
2023-02-23T07:18:01.535Z,7.54
2023-02-23T07:21:04.356Z,7.74
2023-02-23T07:24:07.687Z,7.66
2023-02-23T07:27:10.272Z,7.80
2023-02-23T07:30:14.995Z,7.73
2023-02-23T07:33:18.020Z,7.67
2023-02-23T07:36:22.641Z,7.69
2023-02-23T07:39:25.700Z,7.57
2023-02-23T07:42:28.663Z,7.67
2023-02-23T07:45:32.005Z,7.73
2023-02-23T07:48:35.530Z,7.95
2023-02-23T07:51:39.497Z,7.83
2023-02-23T07:54:42.389Z,7.90
2023-02-23T07:57:45.083Z,8.15
2023-02-23T08:00:48.016Z,8.27
2023-02-23T08:03:51.222Z,8.35
2023-02-23T08:06:55.181Z,8.50
2023-02-23T08:09:58.483Z,8.61
2023-02-23T08:13:01.252Z,8.80
2023-02-23T08:16:04.895Z,8.83
2023-02-23T08:19:07.711Z,8.90
2023-02-23T08:22:10.784Z,8.93
2023-02-23T08:25:13.452Z,9.10
2023-02-23T08:28:16.411Z,9.23
2023-02-23T08:31:21.675Z,9.29
2023-02-23T08:34:25.181Z,9.30
2023-02-23T08:37:27.745Z,9.27
2023-02-23T08:40:31.008Z,9.25
2023-02-23T08:43:33.722Z,9.24
2023-02-23T08:46:36.667Z,9.33
2023-02-23T08:49:39.371Z,9.39
2023-02-23T08:52:42.687Z,9.68
2023-02-23T08:55:45.458Z,9.67
2023-02-23T08:58:48.597Z,9.49
2023-02-23T09:01:51.734Z,9.46
2023-02-23T09:04:55.314Z,9.53
2023-02-23T09:07:57.992Z,9.46
2023-02-23T09:11:00.882Z,9.45
2023-02-23T09:14:03.801Z,9.49
2023-02-23T09:17:06.883Z,9.63
2023-02-23T09:20:13.552Z,9.78
2023-02-23T09:23:16.804Z,9.95
2023-02-23T09:26:20.773Z,9.96
2023-02-23T09:29:24.758Z,10.20
2023-02-23T09:32:27.579Z,10.43
2023-02-23T09:35:30.783Z,10.63
2023-02-23T09:38:33.568Z,10.75
2023-02-23T09:41:58.288Z,10.74
2023-02-23T09:45:26.497Z,10.91
2023-02-23T09:48:30.107Z,10.85
2023-02-23T09:51:39.205Z,10.94
2023-02-23T09:54:43.270Z,11.02
2023-02-23T09:57:48.491Z,10.79
2023-02-23T10:01:12.530Z,11.00
2023-02-23T10:04:28.912Z,10.93
2023-02-23T10:07:49.650Z,11.22
2023-02-23T10:11:18.088Z,11.22
2023-02-23T10:14:52.983Z,11.45
2023-02-23T10:18:45.194Z,11.50
2023-02-23T10:22:03.548Z,11.35
2023-02-23T10:25:12.716Z,11.58
2023-02-23T10:28:17.460Z,11.63
2023-02-23T10:31:34.449Z,11.97
2023-02-23T10:34:37.596Z,11.93
2023-02-23T10:37:40.550Z,12.02
2023-02-23T10:40:46.734Z,11.82
2023-02-23T10:43:49.808Z,11.93
2023-02-23T10:47:32.897Z,12.25
2023-02-23T10:51:02.691Z,12.29
2023-02-23T10:54:44.815Z,12.48
2023-02-23T10:57:51.556Z,12.40
2023-02-23T11:01:02.023Z,12.40
2023-02-23T11:04:25.511Z,12.24
2023-02-23T11:07:31.372Z,12.21
2023-02-23T11:10:34.685Z,12.36
2023-02-23T11:13:46.796Z,12.20
2023-02-23T11:16:50.498Z,12.07
2023-02-23T11:19:59.526Z,12.08
2023-02-23T11:23:14.683Z,12.35
2023-02-23T11:26:31.308Z,12.16
2023-02-23T11:29:38.944Z,12.34
2023-02-23T11:32:42.621Z,12.31
2023-02-23T11:35:46.561Z,11.91
2023-02-23T11:39:01.386Z,12.10
2023-02-23T11:42:15.043Z,12.16
2023-02-23T11:45:22.744Z,11.94
2023-02-23T11:48:25.730Z,11.82
2023-02-23T11:51:39.924Z,11.61
2023-02-23T11:54:52.553Z,11.59
2023-02-23T11:58:11.846Z,11.77
2023-02-23T12:01:17.867Z,11.77
2023-02-23T12:04:37.154Z,11.63
2023-02-23T12:07:45.978Z,11.74
2023-02-23T12:10:57.218Z,11.83
2023-02-23T12:14:12.184Z,11.92
2023-02-23T12:17:17.967Z,11.75
2023-02-23T12:20:30.379Z,11.79
2023-02-23T12:23:37.257Z,11.63
2023-02-23T12:26:50.446Z,11.69
2023-02-23T12:30:34.630Z,11.62
2023-02-23T12:33:44.488Z,11.66
2023-02-23T12:37:12.447Z,11.85
2023-02-23T12:40:35.635Z,11.74
2023-02-23T12:43:49.509Z,11.49
2023-02-23T12:46:55.220Z,11.35
2023-02-23T12:50:29.137Z,11.64
2023-02-23T12:53:39.963Z,11.60
2023-02-23T12:57:04.650Z,11.73
2023-02-23T13:00:32.041Z,11.72
2023-02-23T13:03:48.627Z,11.77
2023-02-23T13:07:05.218Z,11.83
2023-02-23T13:10:36.092Z,11.76
2023-02-23T13:13:52.949Z,11.73
2023-02-23T13:17:45.332Z,12.01
2023-02-23T13:20:54.328Z,12.03
2023-02-23T13:24:03.403Z,12.04
2023-02-23T13:27:30.565Z,12.13
2023-02-23T13:30:35.542Z,12.18
2023-02-23T13:33:44.302Z,11.93
2023-02-23T13:36:50.531Z,12.23
2023-02-23T13:40:19.352Z,12.18
2023-02-23T13:43:23.132Z,12.40
2023-02-23T13:46:26.000Z,12.54
2023-02-23T13:49:47.156Z,12.78
2023-02-23T13:52:55.654Z,12.93
2023-02-23T13:56:03.335Z,12.92
2023-02-23T13:59:09.658Z,12.77
2023-02-23T14:02:33.711Z,12.71
2023-02-23T14:05:45.135Z,12.71
2023-02-23T14:09:13.275Z,12.77
2023-02-23T14:12:34.613Z,12.59
2023-02-23T14:15:39.743Z,12.52
2023-02-23T14:18:51.423Z,12.66
2023-02-23T14:22:10.006Z,12.51
2023-02-23T14:25:34.803Z,12.47
2023-02-23T14:28:44.495Z,12.24
2023-02-23T14:31:59.315Z,12.03
2023-02-23T14:35:02.535Z,12.02
2023-02-23T14:38:11.004Z,11.84
2023-02-23T14:41:13.724Z,11.91
2023-02-23T14:44:30.175Z,11.93
2023-02-23T14:47:43.070Z,11.92
2023-02-23T14:50:46.521Z,12.32
2023-02-23T14:53:53.558Z,12.47
2023-02-23T14:56:58.409Z,12.53
2023-02-23T15:00:07.033Z,12.40
2023-02-23T15:03:13.598Z,12.50
2023-02-23T15:06:16.449Z,12.48
2023-02-23T15:09:46.781Z,12.30
2023-02-23T15:12:50.575Z,12.18
2023-02-23T15:15:54.805Z,11.80
2023-02-23T15:19:00.332Z,11.61
2023-02-23T15:22:05.858Z,11.40
2023-02-23T15:25:33.777Z,11.24
2023-02-23T15:28:40.478Z,11.21
2023-02-23T15:31:53.987Z,11.01
2023-02-23T15:34:57.276Z,10.97
2023-02-23T15:38:14.066Z,10.89
2023-02-23T15:41:36.877Z,10.84
2023-02-23T15:44:44.919Z,10.79
2023-02-23T15:47:52.442Z,10.61
2023-02-23T15:50:57.854Z,10.56
2023-02-23T15:54:07.874Z,10.48
2023-02-23T15:57:20.149Z,10.48
2023-02-23T16:00:32.930Z,10.38
2023-02-23T16:03:38.955Z,10.29
2023-02-23T16:07:15.122Z,10.22
2023-02-23T16:10:22.338Z,10.17
2023-02-23T16:13:25.130Z,10.17
2023-02-23T16:16:28.436Z,10.16
2023-02-23T16:19:31.858Z,10.08
2023-02-23T16:22:36.363Z,10.08
2023-02-23T16:25:42.723Z,10.02
2023-02-23T16:28:46.780Z,10.03
2023-02-23T16:31:58.067Z,9.98
2023-02-23T16:35:08.773Z,9.94
2023-02-23T16:38:33.546Z,9.87
2023-02-23T16:41:36.422Z,9.82
2023-02-23T16:44:43.672Z,9.80
2023-02-23T16:47:48.144Z,9.87
2023-02-23T16:50:51.689Z,9.81
2023-02-23T16:53:55.170Z,9.80
2023-02-23T16:56:58.359Z,9.92
2023-02-23T17:00:01.513Z,9.83
2023-02-23T17:03:06.725Z,9.84
2023-02-23T17:06:09.822Z,9.80
2023-02-23T17:09:13.137Z,9.78
2023-02-23T17:12:21.701Z,9.76
2023-02-23T17:15:29.274Z,9.79
2023-02-23T17:18:38.878Z,9.83
2023-02-23T17:21:43.408Z,9.79
2023-02-23T17:24:46.385Z,9.81
2023-02-23T17:27:55.633Z,9.84
2023-02-23T17:30:58.943Z,9.81
2023-02-23T17:34:02.062Z,9.70
2023-02-23T17:37:07.570Z,9.66
2023-02-23T17:40:15.770Z,9.63
2023-02-23T17:43:21.560Z,9.59
2023-02-23T17:46:25.948Z,9.52
2023-02-23T17:49:29.454Z,9.53
2023-02-23T17:52:32.128Z,9.41
2023-02-23T17:55:35.294Z,9.32
2023-02-23T17:58:40.110Z,9.24
2023-02-23T18:01:43.349Z,9.11
2023-02-23T18:04:48.158Z,9.06
2023-02-23T18:07:51.048Z,9.01
2023-02-23T18:10:55.281Z,8.97
2023-02-23T18:13:58.138Z,8.90
2023-02-23T18:17:01.353Z,8.87
2023-02-23T18:20:06.463Z,8.82
2023-02-23T18:23:10.093Z,8.71
2023-02-23T18:26:18.616Z,8.62
2023-02-23T18:29:21.883Z,8.56
2023-02-23T18:32:24.964Z,8.51
2023-02-23T18:35:28.209Z,8.50
2023-02-23T18:38:31.399Z,8.49
2023-02-23T18:41:34.862Z,8.47
2023-02-23T18:44:37.860Z,8.51
2023-02-23T18:47:41.202Z,8.42
2023-02-23T18:50:44.503Z,8.37
2023-02-23T18:53:49.146Z,8.42
2023-02-23T18:56:52.437Z,8.44
2023-02-23T18:59:55.601Z,8.40
2023-02-23T19:02:58.489Z,8.36
2023-02-23T19:06:02.070Z,8.36
2023-02-23T19:09:09.553Z,8.38
2023-02-23T19:12:14.724Z,8.35
2023-02-23T19:15:17.700Z,8.26
2023-02-23T19:18:21.277Z,8.24
2023-02-23T19:21:24.746Z,8.25
2023-02-23T19:24:28.003Z,8.24
2023-02-23T19:27:34.361Z,8.19
2023-02-23T19:30:38.045Z,8.14
2023-02-23T19:33:40.940Z,8.12
2023-02-23T19:36:47.208Z,8.04
2023-02-23T19:39:50.537Z,8.01
2023-02-23T19:42:53.884Z,7.93
2023-02-23T19:46:03.558Z,7.83
2023-02-23T19:49:06.959Z,7.74
2023-02-23T19:52:10.156Z,7.64
2023-02-23T19:55:13.761Z,7.59
2023-02-23T19:58:16.570Z,7.55
2023-02-23T20:01:23.029Z,7.57
2023-02-23T20:04:28.314Z,7.59
2023-02-23T20:07:30.964Z,7.58
2023-02-23T20:10:34.807Z,7.57
2023-02-23T20:13:40.960Z,7.65
2023-02-23T20:16:45.229Z,7.63
2023-02-23T20:19:48.268Z,7.59
2023-02-23T20:22:55.707Z,7.56
2023-02-23T20:25:58.604Z,7.48
2023-02-23T20:29:04.584Z,7.41
2023-02-23T20:32:07.610Z,7.37
2023-02-23T20:35:14.325Z,7.37
2023-02-23T20:38:17.211Z,7.40
2023-02-23T20:41:21.233Z,7.40
2023-02-23T20:44:24.804Z,7.40
2023-02-23T20:47:28.160Z,7.39
2023-02-23T20:50:34.035Z,7.36
2023-02-23T20:53:37.452Z,7.40
2023-02-23T20:56:41.593Z,7.48
2023-02-23T20:59:44.927Z,7.61
2023-02-23T21:02:48.332Z,7.68
2023-02-23T21:05:51.759Z,7.71
2023-02-23T21:09:04.314Z,7.71
2023-02-23T21:12:10.269Z,7.81
2023-02-23T21:15:14.891Z,7.90
2023-02-23T21:18:18.150Z,7.93
2023-02-23T21:21:21.287Z,8.01
2023-02-23T21:24:25.772Z,8.18
2023-02-23T21:27:28.620Z,8.17
2023-02-23T21:30:32.007Z,8.28
2023-02-23T21:33:34.678Z,8.23
2023-02-23T21:36:38.510Z,8.25
2023-02-23T21:39:42.092Z,8.22
2023-02-23T21:42:44.999Z,8.30
2023-02-23T21:45:47.625Z,8.40
2023-02-23T21:48:51.128Z,8.27
2023-02-23T21:51:55.256Z,8.18
2023-02-23T21:54:59.702Z,8.18
2023-02-23T21:58:03.139Z,8.18
2023-02-23T22:01:36.820Z,8.16
2023-02-23T22:04:40.373Z,8.11
2023-02-23T22:07:51.685Z,8.07
2023-02-23T22:10:54.577Z,8.10
2023-02-23T22:13:59.453Z,8.14
2023-02-23T22:17:03.957Z,8.18
2023-02-23T22:20:07.450Z,8.16
2023-02-23T22:23:10.522Z,8.15
2023-02-23T22:26:13.643Z,8.23
2023-02-23T22:29:16.656Z,8.30
2023-02-23T22:32:19.477Z,8.30
2023-02-23T22:35:22.488Z,8.26
2023-02-23T22:38:25.304Z,8.24
2023-02-23T22:41:29.635Z,8.34
2023-02-23T22:44:32.273Z,8.35
2023-02-23T22:47:35.435Z,8.42
2023-02-23T22:50:38.525Z,8.34
2023-02-23T22:53:41.971Z,8.41
2023-02-23T22:56:44.612Z,8.52
2023-02-23T22:59:58.183Z,8.47
2023-02-23T23:03:05.461Z,8.57
2023-02-23T23:06:11.176Z,8.41
2023-02-23T23:09:14.914Z,8.32
2023-02-23T23:12:18.249Z,8.46
2023-02-23T23:15:23.053Z,8.36
2023-02-23T23:18:28.319Z,8.37
2023-02-23T23:21:33.369Z,8.28
2023-02-23T23:24:36.811Z,8.29
2023-02-23T23:27:41.371Z,8.23
2023-02-23T23:30:46.033Z,8.19
2023-02-23T23:33:51.747Z,8.32
2023-02-23T23:36:55.490Z,8.29
2023-02-23T23:40:00.044Z,8.31
2023-02-23T23:43:06.143Z,8.29
2023-02-23T23:46:10.736Z,8.32
2023-02-23T23:49:17.223Z,8.25
2023-02-23T23:52:21.039Z,8.18
2023-02-23T23:55:23.967Z,8.32
2023-02-23T23:58:26.807Z,8.22
